University, Florida
Current Conditions -  °F | °C
As of 9:11 AM on Wednesday 26 Nov 2014 (Local Time) from KHWO Reporting Station
Light Rain Light Rain  
Wind Chill: 77°   Ceiling: 4000
Heat Index: 78°   Visibility: 10mi
Dew Point: 74°   Wind: 13mph
Humidity: 90%   Direction: 260°W
Pressure: 30.04"   Gusts: NA
Location:  26.0272°N, 80.2445°W
Report Text: KHWO 261411Z 26011KT 10SM -RA FEW011 BKN040 OVC060 25/23 A3004 RMK AO2 WSHFT 1342 LTG DSNT N AND NE P0003 T02500233
Loading
Personal Weather Stations






























Interactive Weather Map New forecast layout! Learn more

10-Day Weather Forecast

Advertisements
Track Severe Weather on mobile